sensor_id;sensor_type;location;lat;lon;timestamp;temperature;humidity
11597;DHT22;5854;48.072;16.286;2023-11-19T00:02:01;4.00;68.60
11597;DHT22;5854;48.072;16.286;2023-11-19T00:04:28;4.00;68.90
11597;DHT22;5854;48.072;16.286;2023-11-19T00:06:55;3.90;68.20
11597;DHT22;5854;48.072;16.286;2023-11-19T00:09:28;3.90;69.10
11597;DHT22;5854;48.072;16.286;2023-11-19T00:11:56;3.90;69.20
11597;DHT22;5854;48.072;16.286;2023-11-19T00:14:25;4.00;70.30
11597;DHT22;5854;48.072;16.286;2023-11-19T00:16:56;4.00;68.60
11597;DHT22;5854;48.072;16.286;2023-11-19T00:19:23;4.00;69.20
11597;DHT22;5854;48.072;16.286;2023-11-19T00:21:50;4.00;69.40
11597;DHT22;5854;48.072;16.286;2023-11-19T00:24:17;4.00;69.10
11597;DHT22;5854;48.072;16.286;2023-11-19T00:26:46;4.00;69.00
11597;DHT22;5854;48.072;16.286;2023-11-19T00:29:14;4.00;69.10
11597;DHT22;5854;48.072;16.286;2023-11-19T00:31:44;4.00;69.20
11597;DHT22;5854;48.072;16.286;2023-11-19T00:34:11;4.00;68.20
11597;DHT22;5854;48.072;16.286;2023-11-19T00:36:39;4.00;64.80
11597;DHT22;5854;48.072;16.286;2023-11-19T00:39:06;3.80;63.40
11597;DHT22;5854;48.072;16.286;2023-11-19T00:41:33;3.60;62.30
11597;DHT22;5854;48.072;16.286;2023-11-19T00:44:00;3.40;63.50
11597;DHT22;5854;48.072;16.286;2023-11-19T00:46:32;3.20;67.40
11597;DHT22;5854;48.072;16.286;2023-11-19T00:48:59;3.10;67.80
11597;DHT22;5854;48.072;16.286;2023-11-19T00:51:26;3.00;68.30
11597;DHT22;5854;48.072;16.286;2023-11-19T00:53:54;3.00;68.30
11597;DHT22;5854;48.072;16.286;2023-11-19T00:56:21;3.10;68.90
11597;DHT22;5854;48.072;16.286;2023-11-19T00:58:48;3.20;68.30
11597;DHT22;5854;48.072;16.286;2023-11-19T01:01:15;3.30;68.40
11597;DHT22;5854;48.072;16.286;2023-11-19T01:03:44;3.40;69.00
11597;DHT22;5854;48.072;16.286;2023-11-19T01:06:11;3.60;68.50
11597;DHT22;5854;48.072;16.286;2023-11-19T01:08:39;3.70;65.60
11597;DHT22;5854;48.072;16.286;2023-11-19T01:11:07;3.60;64.00
11597;DHT22;5854;48.072;16.286;2023-11-19T01:13:35;3.60;64.80
11597;DHT22;5854;48.072;16.286;2023-11-19T01:16:02;3.70;67.50
11597;DHT22;5854;48.072;16.286;2023-11-19T01:18:29;3.80;67.20
11597;DHT22;5854;48.072;16.286;2023-11-19T01:20:59;3.80;67.40
11597;DHT22;5854;48.072;16.286;2023-11-19T01:23:26;3.90;70.10
11597;DHT22;5854;48.072;16.286;2023-11-19T01:25:53;3.90;66.70
11597;DHT22;5854;48.072;16.286;2023-11-19T01:28:20;3.90;67.70
11597;DHT22;5854;48.072;16.286;2023-11-19T01:30:50;4.00;67.90
11597;DHT22;5854;48.072;16.286;2023-11-19T01:33:17;4.00;68.10
11597;DHT22;5854;48.072;16.286;2023-11-19T01:35:44;4.10;68.70
11597;DHT22;5854;48.072;16.286;2023-11-19T01:38:13;4.10;68.90
11597;DHT22;5854;48.072;16.286;2023-11-19T01:40:40;4.10;66.90
11597;DHT22;5854;48.072;16.286;2023-11-19T01:43:07;4.20;66.50
11597;DHT22;5854;48.072;16.286;2023-11-19T01:45:37;4.20;65.20
11597;DHT22;5854;48.072;16.286;2023-11-19T01:48:05;4.30;66.50
11597;DHT22;5854;48.072;16.286;2023-11-19T01:50:33;4.30;60.80
11597;DHT22;5854;48.072;16.286;2023-11-19T01:53:01;4.40;63.70
11597;DHT22;5854;48.072;16.286;2023-11-19T01:55:30;4.30;60.30
11597;DHT22;5854;48.072;16.286;2023-11-19T01:57:59;4.40;63.20
11597;DHT22;5854;48.072;16.286;2023-11-19T02:00:28;4.40;62.50
11597;DHT22;5854;48.072;16.286;2023-11-19T02:02:55;4.30;61.10
11597;DHT22;5854;48.072;16.286;2023-11-19T02:05:23;4.20;59.10
11597;DHT22;5854;48.072;16.286;2023-11-19T02:07:50;4.30;64.80
11597;DHT22;5854;48.072;16.286;2023-11-19T02:10:18;4.10;62.80
11597;DHT22;5854;48.072;16.286;2023-11-19T02:12:46;4.10;65.50
11597;DHT22;5854;48.072;16.286;2023-11-19T02:15:14;4.10;67.40
11597;DHT22;5854;48.072;16.286;2023-11-19T02:17:44;3.80;68.90
11597;DHT22;5854;48.072;16.286;2023-11-19T02:20:11;3.70;71.70
11597;DHT22;5854;48.072;16.286;2023-11-19T02:22:40;3.70;73.10
11597;DHT22;5854;48.072;16.286;2023-11-19T02:25:12;3.60;74.90
11597;DHT22;5854;48.072;16.286;2023-11-19T02:27:57;3.80;75.30
11597;DHT22;5854;48.072;16.286;2023-11-19T02:30:26;3.60;76.20
11597;DHT22;5854;48.072;16.286;2023-11-19T02:32:54;3.30;78.40
11597;DHT22;5854;48.072;16.286;2023-11-19T02:35:23;3.30;79.70
11597;DHT22;5854;48.072;16.286;2023-11-19T02:37:50;3.30;79.90
11597;DHT22;5854;48.072;16.286;2023-11-19T02:40:17;3.30;80.30
11597;DHT22;5854;48.072;16.286;2023-11-19T02:42:44;3.30;80.60
11597;DHT22;5854;48.072;16.286;2023-11-19T02:45:12;3.00;81.80
11597;DHT22;5854;48.072;16.286;2023-11-19T02:47:41;3.00;82.60
11597;DHT22;5854;48.072;16.286;2023-11-19T02:50:09;3.00;83.20
11597;DHT22;5854;48.072;16.286;2023-11-19T02:52:40;2.90;83.90
11597;DHT22;5854;48.072;16.286;2023-11-19T02:55:08;2.80;83.80
11597;DHT22;5854;48.072;16.286;2023-11-19T02:57:38;2.80;84.50
11597;DHT22;5854;48.072;16.286;2023-11-19T03:00:07;2.90;85.70
11597;DHT22;5854;48.072;16.286;2023-11-19T03:02:40;3.10;84.50
11597;DHT22;5854;48.072;16.286;2023-11-19T03:05:12;3.20;82.60
11597;DHT22;5854;48.072;16.286;2023-11-19T03:07:41;3.30;82.00
11597;DHT22;5854;48.072;16.286;2023-11-19T03:10:09;3.40;80.90
11597;DHT22;5854;48.072;16.286;2023-11-19T03:12:39;3.40;80.70
11597;DHT22;5854;48.072;16.286;2023-11-19T03:15:07;3.60;80.50
11597;DHT22;5854;48.072;16.286;2023-11-19T03:17:36;3.70;80.20
11597;DHT22;5854;48.072;16.286;2023-11-19T03:20:06;3.70;79.90
11597;DHT22;5854;48.072;16.286;2023-11-19T03:22:36;3.80;79.10
11597;DHT22;5854;48.072;16.286;2023-11-19T03:25:05;3.90;77.50
11597;DHT22;5854;48.072;16.286;2023-11-19T03:27:34;3.80;77.90
11597;DHT22;5854;48.072;16.286;2023-11-19T03:30:02;3.70;79.10
11597;DHT22;5854;48.072;16.286;2023-11-19T03:32:30;3.70;81.60
11597;DHT22;5854;48.072;16.286;2023-11-19T03:34:58;3.80;78.60
11597;DHT22;5854;48.072;16.286;2023-11-19T03:37:27;3.80;79.50
11597;DHT22;5854;48.072;16.286;2023-11-19T03:39:55;3.80;80.60
11597;DHT22;5854;48.072;16.286;2023-11-19T03:42:25;3.90;78.70
11597;DHT22;5854;48.072;16.286;2023-11-19T03:44:52;3.90;79.50
11597;DHT22;5854;48.072;16.286;2023-11-19T03:47:20;3.80;79.20
11597;DHT22;5854;48.072;16.286;2023-11-19T03:49:48;3.90;79.00
11597;DHT22;5854;48.072;16.286;2023-11-19T03:52:16;4.00;77.30
11597;DHT22;5854;48.072;16.286;2023-11-19T03:54:45;3.90;79.00
11597;DHT22;5854;48.072;16.286;2023-11-19T03:57:12;3.80;79.50
11597;DHT22;5854;48.072;16.286;2023-11-19T03:59:41;3.70;81.40
11597;DHT22;5854;48.072;16.286;2023-11-19T04:02:08;3.60;81.60
11597;DHT22;5854;48.072;16.286;2023-11-19T04:04:35;3.70;82.50
11597;DHT22;5854;48.072;16.286;2023-11-19T04:07:04;3.70;81.90
11597;DHT22;5854;48.072;16.286;2023-11-19T04:09:32;3.80;81.10
11597;DHT22;5854;48.072;16.286;2023-11-19T04:12:00;3.80;81.90
11597;DHT22;5854;48.072;16.286;2023-11-19T04:14:28;3.90;80.50
11597;DHT22;5854;48.072;16.286;2023-11-19T04:16:55;3.90;80.70
11597;DHT22;5854;48.072;16.286;2023-11-19T04:19:22;4.10;78.80
11597;DHT22;5854;48.072;16.286;2023-11-19T04:21:50;4.10;78.10
11597;DHT22;5854;48.072;16.286;2023-11-19T04:24:17;4.10;77.30
11597;DHT22;5854;48.072;16.286;2023-11-19T04:26:45;4.00;79.20
11597;DHT22;5854;48.072;16.286;2023-11-19T04:29:15;4.00;77.90
11597;DHT22;5854;48.072;16.286;2023-11-19T04:31:43;4.00;79.50
11597;DHT22;5854;48.072;16.286;2023-11-19T04:34:11;4.00;78.90
11597;DHT22;5854;48.072;16.286;2023-11-19T04:36:38;4.00;80.60
11597;DHT22;5854;48.072;16.286;2023-11-19T04:39:06;4.10;78.80
11597;DHT22;5854;48.072;16.286;2023-11-19T04:41:45;4.00;79.30
11597;DHT22;5854;48.072;16.286;2023-11-19T04:44:15;4.00;79.50
11597;DHT22;5854;48.072;16.286;2023-11-19T04:46:43;4.00;81.50
11597;DHT22;5854;48.072;16.286;2023-11-19T04:49:11;4.00;80.30
11597;DHT22;5854;48.072;16.286;2023-11-19T04:51:39;4.00;80.30
11597;DHT22;5854;48.072;16.286;2023-11-19T04:54:07;4.00;80.90
11597;DHT22;5854;48.072;16.286;2023-11-19T04:56:35;3.90;82.10
11597;DHT22;5854;48.072;16.286;2023-11-19T04:59:03;3.90;83.50
11597;DHT22;5854;48.072;16.286;2023-11-19T05:01:32;3.80;83.60
11597;DHT22;5854;48.072;16.286;2023-11-19T05:04:00;3.70;86.00
11597;DHT22;5854;48.072;16.286;2023-11-19T05:06:28;3.70;86.00
11597;DHT22;5854;48.072;16.286;2023-11-19T05:08:56;3.80;84.80
11597;DHT22;5854;48.072;16.286;2023-11-19T05:11:26;3.80;85.50
11597;DHT22;5854;48.072;16.286;2023-11-19T05:13:53;3.90;85.20
11597;DHT22;5854;48.072;16.286;2023-11-19T05:16:20;3.90;84.70
11597;DHT22;5854;48.072;16.286;2023-11-19T05:18:49;3.90;83.40
11597;DHT22;5854;48.072;16.286;2023-11-19T05:21:16;3.90;82.60
11597;DHT22;5854;48.072;16.286;2023-11-19T05:23:44;3.90;83.10
11597;DHT22;5854;48.072;16.286;2023-11-19T05:26:17;4.00;80.60
11597;DHT22;5854;48.072;16.286;2023-11-19T05:28:45;4.00;83.20
11597;DHT22;5854;48.072;16.286;2023-11-19T05:31:13;3.90;83.10
11597;DHT22;5854;48.072;16.286;2023-11-19T05:33:40;4.00;82.90
11597;DHT22;5854;48.072;16.286;2023-11-19T05:36:10;3.90;83.60
11597;DHT22;5854;48.072;16.286;2023-11-19T05:38:38;3.90;83.30
11597;DHT22;5854;48.072;16.286;2023-11-19T05:41:06;3.90;82.50
11597;DHT22;5854;48.072;16.286;2023-11-19T05:43:33;3.90;82.90
11597;DHT22;5854;48.072;16.286;2023-11-19T05:46:00;3.90;84.60
11597;DHT22;5854;48.072;16.286;2023-11-19T05:48:28;3.70;86.60
11597;DHT22;5854;48.072;16.286;2023-11-19T05:50:55;3.80;86.30
11597;DHT22;5854;48.072;16.286;2023-11-19T05:53:24;3.80;87.30
11597;DHT22;5854;48.072;16.286;2023-11-19T05:55:51;3.70;87.30
11597;DHT22;5854;48.072;16.286;2023-11-19T05:58:23;3.80;86.60
11597;DHT22;5854;48.072;16.286;2023-11-19T06:00:54;3.80;86.80
11597;DHT22;5854;48.072;16.286;2023-11-19T06:03:21;3.80;86.30
11597;DHT22;5854;48.072;16.286;2023-11-19T06:05:49;3.90;85.60
11597;DHT22;5854;48.072;16.286;2023-11-19T06:08:16;3.90;85.90
11597;DHT22;5854;48.072;16.286;2023-11-19T06:10:47;3.90;86.70
11597;DHT22;5854;48.072;16.286;2023-11-19T06:13:16;3.80;85.60
11597;DHT22;5854;48.072;16.286;2023-11-19T06:15:43;3.90;84.60
11597;DHT22;5854;48.072;16.286;2023-11-19T06:18:11;3.90;84.30
11597;DHT22;5854;48.072;16.286;2023-11-19T06:20:38;3.90;84.10
11597;DHT22;5854;48.072;16.286;2023-11-19T06:23:05;3.90;83.40
11597;DHT22;5854;48.072;16.286;2023-11-19T06:25:32;3.90;84.60
11597;DHT22;5854;48.072;16.286;2023-11-19T06:28:02;3.80;85.90
11597;DHT22;5854;48.072;16.286;2023-11-19T06:30:30;3.80;85.00
11597;DHT22;5854;48.072;16.286;2023-11-19T06:32:58;3.90;85.00
11597;DHT22;5854;48.072;16.286;2023-11-19T06:35:25;3.70;87.80
11597;DHT22;5854;48.072;16.286;2023-11-19T06:37:54;3.70;87.90
11597;DHT22;5854;48.072;16.286;2023-11-19T06:40:22;3.80;87.30
11597;DHT22;5854;48.072;16.286;2023-11-19T06:42:49;3.80;87.40
11597;DHT22;5854;48.072;16.286;2023-11-19T06:45:17;3.80;86.90
11597;DHT22;5854;48.072;16.286;2023-11-19T06:47:44;3.90;85.40
11597;DHT22;5854;48.072;16.286;2023-11-19T06:50:11;4.00;84.70
11597;DHT22;5854;48.072;16.286;2023-11-19T06:52:40;3.90;86.40
11597;DHT22;5854;48.072;16.286;2023-11-19T06:55:08;4.00;85.30
11597;DHT22;5854;48.072;16.286;2023-11-19T06:57:35;3.90;85.20
11597;DHT22;5854;48.072;16.286;2023-11-19T07:00:05;3.90;85.10
11597;DHT22;5854;48.072;16.286;2023-11-19T07:02:35;3.80;88.20
11597;DHT22;5854;48.072;16.286;2023-11-19T07:05:02;3.80;89.60
11597;DHT22;5854;48.072;16.286;2023-11-19T07:07:30;3.80;89.10
11597;DHT22;5854;48.072;16.286;2023-11-19T07:09:58;3.80;88.00
11597;DHT22;5854;48.072;16.286;2023-11-19T07:12:25;3.80;89.10
11597;DHT22;5854;48.072;16.286;2023-11-19T07:14:52;3.70;90.60
11597;DHT22;5854;48.072;16.286;2023-11-19T07:17:20;3.50;92.30
11597;DHT22;5854;48.072;16.286;2023-11-19T07:19:51;3.50;92.70
11597;DHT22;5854;48.072;16.286;2023-11-19T07:22:18;3.70;90.70
11597;DHT22;5854;48.072;16.286;2023-11-19T07:24:45;3.80;87.30
11597;DHT22;5854;48.072;16.286;2023-11-19T07:27:12;4.00;85.80
11597;DHT22;5854;48.072;16.286;2023-11-19T07:29:43;4.00;86.60
11597;DHT22;5854;48.072;16.286;2023-11-19T07:32:10;4.20;87.90
11597;DHT22;5854;48.072;16.286;2023-11-19T07:34:39;4.30;85.40
11597;DHT22;5854;48.072;16.286;2023-11-19T07:37:08;4.30;83.60
11597;DHT22;5854;48.072;16.286;2023-11-19T07:39:35;4.30;84.20
11597;DHT22;5854;48.072;16.286;2023-11-19T07:42:03;4.40;83.80
11597;DHT22;5854;48.072;16.286;2023-11-19T07:44:31;4.40;81.80
11597;DHT22;5854;48.072;16.286;2023-11-19T07:46:58;4.10;86.80
11597;DHT22;5854;48.072;16.286;2023-11-19T07:49:25;4.00;89.40
11597;DHT22;5854;48.072;16.286;2023-11-19T07:51:52;4.00;87.70
11597;DHT22;5854;48.072;16.286;2023-11-19T07:54:21;4.10;88.00
11597;DHT22;5854;48.072;16.286;2023-11-19T07:56:48;4.00;89.50
11597;DHT22;5854;48.072;16.286;2023-11-19T07:59:16;4.00;90.10
11597;DHT22;5854;48.072;16.286;2023-11-19T08:01:43;4.00;90.70
11597;DHT22;5854;48.072;16.286;2023-11-19T08:04:10;4.00;91.70
11597;DHT22;5854;48.072;16.286;2023-11-19T08:06:37;3.90;92.80
11597;DHT22;5854;48.072;16.286;2023-11-19T08:09:05;3.80;93.00
11597;DHT22;5854;48.072;16.286;2023-11-19T08:11:40;3.80;93.70
11597;DHT22;5854;48.072;16.286;2023-11-19T08:14:07;3.90;94.50
11597;DHT22;5854;48.072;16.286;2023-11-19T08:16:35;4.10;91.90
11597;DHT22;5854;48.072;16.286;2023-11-19T08:19:03;4.10;91.00
11597;DHT22;5854;48.072;16.286;2023-11-19T08:21:30;4.10;90.60
11597;DHT22;5854;48.072;16.286;2023-11-19T08:23:59;4.20;91.70
11597;DHT22;5854;48.072;16.286;2023-11-19T08:26:26;4.20;89.70
11597;DHT22;5854;48.072;16.286;2023-11-19T08:28:55;4.40;87.80
11597;DHT22;5854;48.072;16.286;2023-11-19T08:31:24;4.60;85.70
11597;DHT22;5854;48.072;16.286;2023-11-19T08:33:52;4.50;88.10
11597;DHT22;5854;48.072;16.286;2023-11-19T08:36:19;4.20;90.90
11597;DHT22;5854;48.072;16.286;2023-11-19T08:38:46;4.00;93.40
11597;DHT22;5854;48.072;16.286;2023-11-19T08:41:13;4.10;94.00
11597;DHT22;5854;48.072;16.286;2023-11-19T08:43:43;4.30;91.30
11597;DHT22;5854;48.072;16.286;2023-11-19T08:46:11;4.50;90.70
11597;DHT22;5854;48.072;16.286;2023-11-19T08:48:39;4.70;91.70
11597;DHT22;5854;48.072;16.286;2023-11-19T08:51:06;4.60;91.30
11597;DHT22;5854;48.072;16.286;2023-11-19T08:53:34;4.40;92.80
11597;DHT22;5854;48.072;16.286;2023-11-19T08:56:01;4.30;94.60
11597;DHT22;5854;48.072;16.286;2023-11-19T08:58:28;4.40;93.90
11597;DHT22;5854;48.072;16.286;2023-11-19T09:00:56;4.50;90.70
11597;DHT22;5854;48.072;16.286;2023-11-19T09:03:24;4.60;89.80
11597;DHT22;5854;48.072;16.286;2023-11-19T09:05:52;4.40;91.90
11597;DHT22;5854;48.072;16.286;2023-11-19T09:08:19;4.30;93.50
11597;DHT22;5854;48.072;16.286;2023-11-19T09:10:46;4.50;94.80
11597;DHT22;5854;48.072;16.286;2023-11-19T09:13:14;4.60;93.90
11597;DHT22;5854;48.072;16.286;2023-11-19T09:15:41;4.70;93.80
11597;DHT22;5854;48.072;16.286;2023-11-19T09:18:09;4.60;93.60
11597;DHT22;5854;48.072;16.286;2023-11-19T09:20:37;4.60;94.00
11597;DHT22;5854;48.072;16.286;2023-11-19T09:23:04;4.70;93.60
11597;DHT22;5854;48.072;16.286;2023-11-19T09:25:32;4.70;92.30
11597;DHT22;5854;48.072;16.286;2023-11-19T09:27:59;4.80;93.60
11597;DHT22;5854;48.072;16.286;2023-11-19T09:30:27;4.80;93.10
11597;DHT22;5854;48.072;16.286;2023-11-19T09:32:54;4.80;92.80
11597;DHT22;5854;48.072;16.286;2023-11-19T09:35:22;4.70;91.20
11597;DHT22;5854;48.072;16.286;2023-11-19T09:37:50;4.60;93.90
11597;DHT22;5854;48.072;16.286;2023-11-19T09:40:18;4.60;95.80
11597;DHT22;5854;48.072;16.286;2023-11-19T09:42:47;4.60;95.40
11597;DHT22;5854;48.072;16.286;2023-11-19T09:45:15;4.70;94.60
11597;DHT22;5854;48.072;16.286;2023-11-19T09:47:44;4.60;94.30
11597;DHT22;5854;48.072;16.286;2023-11-19T09:50:16;4.80;94.00
11597;DHT22;5854;48.072;16.286;2023-11-19T09:52:44;4.70;93.40
11597;DHT22;5854;48.072;16.286;2023-11-19T09:55:13;4.80;91.90
11597;DHT22;5854;48.072;16.286;2023-11-19T09:57:41;4.80;92.90
11597;DHT22;5854;48.072;16.286;2023-11-19T10:00:10;4.90;93.00
11597;DHT22;5854;48.072;16.286;2023-11-19T10:02:39;4.90;93.70
11597;DHT22;5854;48.072;16.286;2023-11-19T10:05:07;4.80;93.40
11597;DHT22;5854;48.072;16.286;2023-11-19T10:07:35;4.80;94.60
11597;DHT22;5854;48.072;16.286;2023-11-19T10:10:04;4.80;95.10
11597;DHT22;5854;48.072;16.286;2023-11-19T10:12:34;4.60;94.70
11597;DHT22;5854;48.072;16.286;2023-11-19T10:15:01;4.80;94.90
11597;DHT22;5854;48.072;16.286;2023-11-19T10:17:29;4.80;94.70
11597;DHT22;5854;48.072;16.286;2023-11-19T10:19:59;4.90;93.70
11597;DHT22;5854;48.072;16.286;2023-11-19T10:22:36;4.90;93.80
11597;DHT22;5854;48.072;16.286;2023-11-19T10:25:05;4.90;93.30
11597;DHT22;5854;48.072;16.286;2023-11-19T10:27:50;5.00;93.60
11597;DHT22;5854;48.072;16.286;2023-11-19T10:30:18;5.30;92.10
11597;DHT22;5854;48.072;16.286;2023-11-19T10:33:06;5.30;89.70
11597;DHT22;5854;48.072;16.286;2023-11-19T10:35:50;5.50;91.30
11597;DHT22;5854;48.072;16.286;2023-11-19T10:38:17;5.50;88.70
11597;DHT22;5854;48.072;16.286;2023-11-19T10:40:45;5.30;90.60
11597;DHT22;5854;48.072;16.286;2023-11-19T10:43:14;5.20;90.90
11597;DHT22;5854;48.072;16.286;2023-11-19T10:45:42;5.10;91.80
11597;DHT22;5854;48.072;16.286;2023-11-19T10:48:09;5.00;93.20
11597;DHT22;5854;48.072;16.286;2023-11-19T10:50:40;5.00;94.40
11597;DHT22;5854;48.072;16.286;2023-11-19T10:53:11;4.90;94.60
11597;DHT22;5854;48.072;16.286;2023-11-19T10:55:39;5.00;95.70
11597;DHT22;5854;48.072;16.286;2023-11-19T10:58:08;5.00;95.40
11597;DHT22;5854;48.072;16.286;2023-11-19T11:00:43;5.10;95.30
11597;DHT22;5854;48.072;16.286;2023-11-19T11:03:15;5.10;95.10
11597;DHT22;5854;48.072;16.286;2023-11-19T11:05:46;5.10;94.80
11597;DHT22;5854;48.072;16.286;2023-11-19T11:08:15;5.10;92.60
11597;DHT22;5854;48.072;16.286;2023-11-19T11:10:44;5.20;94.20
11597;DHT22;5854;48.072;16.286;2023-11-19T11:13:13;5.40;92.30
11597;DHT22;5854;48.072;16.286;2023-11-19T11:15:42;5.50;92.50
11597;DHT22;5854;48.072;16.286;2023-11-19T11:18:12;5.50;93.10
11597;DHT22;5854;48.072;16.286;2023-11-19T11:20:40;5.50;94.70
11597;DHT22;5854;48.072;16.286;2023-11-19T11:26:38;5.30;95.20
11597;DHT22;5854;48.072;16.286;2023-11-19T11:29:31;5.40;96.10
11597;DHT22;5854;48.072;16.286;2023-11-19T11:32:16;5.50;95.50
11597;DHT22;5854;48.072;16.286;2023-11-19T11:34:58;5.70;91.80
11597;DHT22;5854;48.072;16.286;2023-11-19T11:37:33;5.90;90.20
11597;DHT22;5854;48.072;16.286;2023-11-19T11:40:04;5.80;94.90
11597;DHT22;5854;48.072;16.286;2023-11-19T11:42:36;5.70;93.00
11597;DHT22;5854;48.072;16.286;2023-11-19T11:45:05;5.70;93.50
11597;DHT22;5854;48.072;16.286;2023-11-19T11:50:56;5.90;88.50
11597;DHT22;5854;48.072;16.286;2023-11-19T11:53:25;5.90;87.60
11597;DHT22;5854;48.072;16.286;2023-11-19T11:55:55;5.80;89.40
11597;DHT22;5854;48.072;16.286;2023-11-19T11:58:42;5.90;83.20
11597;DHT22;5854;48.072;16.286;2023-11-19T12:01:15;5.90;86.10
11597;DHT22;5854;48.072;16.286;2023-11-19T12:03:50;6.00;82.50
11597;DHT22;5854;48.072;16.286;2023-11-19T12:06:20;6.10;77.70
11597;DHT22;5854;48.072;16.286;2023-11-19T12:08:47;6.10;81.80
11597;DHT22;5854;48.072;16.286;2023-11-19T12:11:14;5.90;91.40
11597;DHT22;5854;48.072;16.286;2023-11-19T12:13:54;5.90;91.60
11597;DHT22;5854;48.072;16.286;2023-11-19T12:16:24;5.90;88.20
11597;DHT22;5854;48.072;16.286;2023-11-19T12:18:54;5.80;93.50
11597;DHT22;5854;48.072;16.286;2023-11-19T12:21:29;5.60;96.80
11597;DHT22;5854;48.072;16.286;2023-11-19T12:23:58;5.50;99.10
11597;DHT22;5854;48.072;16.286;2023-11-19T12:26:39;5.50;99.20
11597;DHT22;5854;48.072;16.286;2023-11-19T12:29:07;5.50;99.30
11597;DHT22;5854;48.072;16.286;2023-11-19T12:31:34;5.60;99.90
11597;DHT22;5854;48.072;16.286;2023-11-19T12:34:12;5.60;99.90
11597;DHT22;5854;48.072;16.286;2023-11-19T12:36:40;5.60;99.90
11597;DHT22;5854;48.072;16.286;2023-11-19T12:39:08;5.60;99.90
11597;DHT22;5854;48.072;16.286;2023-11-19T12:41:52;5.60;99.90
11597;DHT22;5854;48.072;16.286;2023-11-19T12:44:20;5.60;99.90
11597;DHT22;5854;48.072;16.286;2023-11-19T12:47:00;5.60;99.90
11597;DHT22;5854;48.072;16.286;2023-11-19T12:49:29;5.60;99.90
11597;DHT22;5854;48.072;16.286;2023-11-19T12:51:56;5.70;99.90
11597;DHT22;5854;48.072;16.286;2023-11-19T12:54:32;5.70;99.90
11597;DHT22;5854;48.072;16.286;2023-11-19T12:57:00;5.80;99.90
11597;DHT22;5854;48.072;16.286;2023-11-19T12:59:28;5.90;99.90
11597;DHT22;5854;48.072;16.286;2023-11-19T13:01:56;5.90;99.90
11597;DHT22;5854;48.072;16.286;2023-11-19T13:04:27;5.90;99.70
11597;DHT22;5854;48.072;16.286;2023-11-19T13:06:57;5.90;96.90
11597;DHT22;5854;48.072;16.286;2023-11-19T13:09:25;6.10;93.90
11597;DHT22;5854;48.072;16.286;2023-11-19T13:11:53;6.10;94.70
11597;DHT22;5854;48.072;16.286;2023-11-19T13:14:22;6.20;95.70
11597;DHT22;5854;48.072;16.286;2023-11-19T13:16:49;6.20;96.50
11597;DHT22;5854;48.072;16.286;2023-11-19T13:19:19;6.20;97.60
11597;DHT22;5854;48.072;16.286;2023-11-19T13:21:51;6.20;98.40
11597;DHT22;5854;48.072;16.286;2023-11-19T13:24:19;6.30;99.40
11597;DHT22;5854;48.072;16.286;2023-11-19T13:26:46;6.40;99.00
11597;DHT22;5854;48.072;16.286;2023-11-19T13:29:14;6.50;97.60
11597;DHT22;5854;48.072;16.286;2023-11-19T13:31:42;6.50;98.00
11597;DHT22;5854;48.072;16.286;2023-11-19T13:34:10;6.50;97.50
11597;DHT22;5854;48.072;16.286;2023-11-19T13:36:38;6.50;99.10
11597;DHT22;5854;48.072;16.286;2023-11-19T13:39:07;6.50;93.80
11597;DHT22;5854;48.072;16.286;2023-11-19T13:41:35;6.50;90.10
11597;DHT22;5854;48.072;16.286;2023-11-19T13:44:03;6.50;86.90
11597;DHT22;5854;48.072;16.286;2023-11-19T13:46:31;6.60;83.00
11597;DHT22;5854;48.072;16.286;2023-11-19T13:48:58;6.50;86.30
11597;DHT22;5854;48.072;16.286;2023-11-19T13:51:26;6.50;85.10
11597;DHT22;5854;48.072;16.286;2023-11-19T13:53:54;6.40;87.70
11597;DHT22;5854;48.072;16.286;2023-11-19T13:56:23;6.40;90.00
11597;DHT22;5854;48.072;16.286;2023-11-19T13:58:51;6.50;92.20
11597;DHT22;5854;48.072;16.286;2023-11-19T14:01:19;6.40;87.70
11597;DHT22;5854;48.072;16.286;2023-11-19T14:03:46;6.40;94.60
11597;DHT22;5854;48.072;16.286;2023-11-19T14:06:13;6.40;89.90
11597;DHT22;5854;48.072;16.286;2023-11-19T14:08:41;6.40;91.80
11597;DHT22;5854;48.072;16.286;2023-11-19T14:11:08;6.40;91.50
11597;DHT22;5854;48.072;16.286;2023-11-19T14:13:37;6.30;93.40
11597;DHT22;5854;48.072;16.286;2023-11-19T14:16:05;6.30;89.00
11597;DHT22;5854;48.072;16.286;2023-11-19T14:18:34;6.30;88.00
11597;DHT22;5854;48.072;16.286;2023-11-19T14:21:01;6.50;92.00
11597;DHT22;5854;48.072;16.286;2023-11-19T14:23:29;6.40;90.90
11597;DHT22;5854;48.072;16.286;2023-11-19T14:25:56;6.30;95.80
11597;DHT22;5854;48.072;16.286;2023-11-19T14:28:23;6.40;99.40
11597;DHT22;5854;48.072;16.286;2023-11-19T14:30:53;6.40;98.40
11597;DHT22;5854;48.072;16.286;2023-11-19T14:33:22;6.40;99.00
11597;DHT22;5854;48.072;16.286;2023-11-19T14:35:50;6.70;99.90
11597;DHT22;5854;48.072;16.286;2023-11-19T14:38:17;6.80;99.60
11597;DHT22;5854;48.072;16.286;2023-11-19T14:40:44;6.70;94.50
11597;DHT22;5854;48.072;16.286;2023-11-19T14:43:12;6.60;90.30
11597;DHT22;5854;48.072;16.286;2023-11-19T14:45:41;6.50;90.90
11597;DHT22;5854;48.072;16.286;2023-11-19T14:48:10;6.40;88.80
11597;DHT22;5854;48.072;16.286;2023-11-19T14:50:37;6.40;91.30
11597;DHT22;5854;48.072;16.286;2023-11-19T14:53:05;6.40;95.40
11597;DHT22;5854;48.072;16.286;2023-11-19T14:55:32;6.30;96.00
11597;DHT22;5854;48.072;16.286;2023-11-19T14:57:59;6.30;97.40
11597;DHT22;5854;48.072;16.286;2023-11-19T15:00:26;6.20;97.90
11597;DHT22;5854;48.072;16.286;2023-11-19T15:02:54;6.20;96.70
11597;DHT22;5854;48.072;16.286;2023-11-19T15:05:23;6.20;95.40
11597;DHT22;5854;48.072;16.286;2023-11-19T15:07:50;6.20;95.30
11597;DHT22;5854;48.072;16.286;2023-11-19T15:10:17;6.20;99.90
11597;DHT22;5854;48.072;16.286;2023-11-19T15:12:44;6.30;99.90
11597;DHT22;5854;48.072;16.286;2023-11-19T15:15:11;6.90;99.90
11597;DHT22;5854;48.072;16.286;2023-11-19T15:17:39;7.30;99.90
11597;DHT22;5854;48.072;16.286;2023-11-19T15:20:08;7.90;99.90
11597;DHT22;5854;48.072;16.286;2023-11-19T15:22:37;8.10;99.90
11597;DHT22;5854;48.072;16.286;2023-11-19T15:25:05;8.60;99.90
11597;DHT22;5854;48.072;16.286;2023-11-19T15:27:35;8.30;99.90
11597;DHT22;5854;48.072;16.286;2023-11-19T15:30:03;8.40;99.00
11597;DHT22;5854;48.072;16.286;2023-11-19T15:32:31;8.60;95.80
11597;DHT22;5854;48.072;16.286;2023-11-19T15:34:59;8.60;99.90
11597;DHT22;5854;48.072;16.286;2023-11-19T15:37:26;8.40;98.80
11597;DHT22;5854;48.072;16.286;2023-11-19T15:39:56;8.20;96.80
11597;DHT22;5854;48.072;16.286;2023-11-19T15:42:24;7.90;98.60
11597;DHT22;5854;48.072;16.286;2023-11-19T15:44:51;7.80;99.90
11597;DHT22;5854;48.072;16.286;2023-11-19T15:47:18;7.60;99.90
11597;DHT22;5854;48.072;16.286;2023-11-19T15:49:45;7.50;99.90
11597;DHT22;5854;48.072;16.286;2023-11-19T15:52:14;7.40;99.90
11597;DHT22;5854;48.072;16.286;2023-11-19T15:54:41;7.30;99.90
11597;DHT22;5854;48.072;16.286;2023-11-19T15:57:12;7.20;99.90
11597;DHT22;5854;48.072;16.286;2023-11-19T15:59:39;7.10;99.90
11597;DHT22;5854;48.072;16.286;2023-11-19T16:02:06;7.00;99.90